sensor_id;sensor_type;location;lat;lon;timestamp;P1;durP1;ratioP1;P2;durP2;ratioP2
61393;SDS011;48555;50.952;-0.120;2023-03-21T00:00:12;12.10;;;3.75;;
61393;SDS011;48555;50.952;-0.120;2023-03-21T00:02:39;11.35;;;3.97;;
61393;SDS011;48555;50.952;-0.120;2023-03-21T00:05:05;11.63;;;3.88;;
61393;SDS011;48555;50.952;-0.120;2023-03-21T00:07:30;9.25;;;3.45;;
61393;SDS011;48555;50.952;-0.120;2023-03-21T00:09:56;11.60;;;3.60;;
61393;SDS011;48555;50.952;-0.120;2023-03-21T00:12:21;13.25;;;3.97;;
61393;SDS011;48555;50.952;-0.120;2023-03-21T00:14:46;11.30;;;3.58;;
61393;SDS011;48555;50.952;-0.120;2023-03-21T00:17:12;11.15;;;3.80;;
61393;SDS011;48555;50.952;-0.120;2023-03-21T00:19:39;13.25;;;4.07;;
61393;SDS011;48555;50.952;-0.120;2023-03-21T00:22:05;9.77;;;3.67;;
61393;SDS011;48555;50.952;-0.120;2023-03-21T00:24:32;12.98;;;4.05;;
61393;SDS011;48555;50.952;-0.120;2023-03-21T00:26:58;10.52;;;3.63;;
61393;SDS011;48555;50.952;-0.120;2023-03-21T00:29:23;14.90;;;4.15;;
61393;SDS011;48555;50.952;-0.120;2023-03-21T00:31:49;13.90;;;3.92;;
61393;SDS011;48555;50.952;-0.120;2023-03-21T00:34:14;11.50;;;4.03;;
61393;SDS011;48555;50.952;-0.120;2023-03-21T00:36:39;11.85;;;4.10;;
61393;SDS011;48555;50.952;-0.120;2023-03-21T00:39:05;12.15;;;3.95;;
61393;SDS011;48555;50.952;-0.120;2023-03-21T00:41:30;11.88;;;4.47;;
61393;SDS011;48555;50.952;-0.120;2023-03-21T00:43:56;12.30;;;4.13;;
61393;SDS011;48555;50.952;-0.120;2023-03-21T00:46:21;11.15;;;4.30;;
61393;SDS011;48555;50.952;-0.120;2023-03-21T00:48:47;11.15;;;3.90;;
61393;SDS011;48555;50.952;-0.120;2023-03-21T00:51:13;10.75;;;4.32;;
61393;SDS011;48555;50.952;-0.120;2023-03-21T00:53:49;13.50;;;3.97;;
61393;SDS011;48555;50.952;-0.120;2023-03-21T00:56:15;16.25;;;4.32;;
61393;SDS011;48555;50.952;-0.120;2023-03-21T00:58:40;14.32;;;4.75;;
61393;SDS011;48555;50.952;-0.120;2023-03-21T01:01:06;19.58;;;5.05;;
61393;SDS011;48555;50.952;-0.120;2023-03-21T01:03:33;12.60;;;4.20;;
61393;SDS011;48555;50.952;-0.120;2023-03-21T01:06:06;10.05;;;3.80;;
61393;SDS011;48555;50.952;-0.120;2023-03-21T01:08:41;8.52;;;3.70;;
61393;SDS011;48555;50.952;-0.120;2023-03-21T01:11:08;13.73;;;3.97;;
61393;SDS011;48555;50.952;-0.120;2023-03-21T01:13:36;11.93;;;3.72;;
61393;SDS011;48555;50.952;-0.120;2023-03-21T01:16:03;14.60;;;3.78;;
61393;SDS011;48555;50.952;-0.120;2023-03-21T01:18:30;10.52;;;3.50;;
61393;SDS011;48555;50.952;-0.120;2023-03-21T01:20:58;11.15;;;3.47;;
61393;SDS011;48555;50.952;-0.120;2023-03-21T01:23:25;10.65;;;3.60;;
61393;SDS011;48555;50.952;-0.120;2023-03-21T01:25:52;10.13;;;3.58;;
61393;SDS011;48555;50.952;-0.120;2023-03-21T01:28:18;11.40;;;3.28;;
61393;SDS011;48555;50.952;-0.120;2023-03-21T01:30:44;11.55;;;2.97;;
61393;SDS011;48555;50.952;-0.120;2023-03-21T01:33:11;12.57;;;3.50;;
61393;SDS011;48555;50.952;-0.120;2023-03-21T01:35:37;9.65;;;3.60;;
61393;SDS011;48555;50.952;-0.120;2023-03-21T01:38:02;11.25;;;3.92;;
61393;SDS011;48555;50.952;-0.120;2023-03-21T01:40:28;13.15;;;3.58;;
61393;SDS011;48555;50.952;-0.120;2023-03-21T01:42:55;9.05;;;3.42;;
61393;SDS011;48555;50.952;-0.120;2023-03-21T01:48:23;11.70;;;3.13;;
61393;SDS011;48555;50.952;-0.120;2023-03-21T01:50:51;11.95;;;3.63;;
61393;SDS011;48555;50.952;-0.120;2023-03-21T01:53:18;9.88;;;3.30;;
61393;SDS011;48555;50.952;-0.120;2023-03-21T01:55:46;11.50;;;3.58;;
61393;SDS011;48555;50.952;-0.120;2023-03-21T01:58:13;8.68;;;3.17;;
61393;SDS011;48555;50.952;-0.120;2023-03-21T02:00:46;10.48;;;3.03;;
61393;SDS011;48555;50.952;-0.120;2023-03-21T02:03:15;11.60;;;3.20;;
61393;SDS011;48555;50.952;-0.120;2023-03-21T02:08:27;10.18;;;3.28;;
61393;SDS011;48555;50.952;-0.120;2023-03-21T02:10:54;9.50;;;2.75;;
61393;SDS011;48555;50.952;-0.120;2023-03-21T02:13:19;12.43;;;3.42;;
61393;SDS011;48555;50.952;-0.120;2023-03-21T02:15:46;14.18;;;3.72;;
61393;SDS011;48555;50.952;-0.120;2023-03-21T02:21:10;11.52;;;3.20;;
61393;SDS011;48555;50.952;-0.120;2023-03-21T02:26:27;16.75;;;3.58;;
61393;SDS011;48555;50.952;-0.120;2023-03-21T02:40:10;11.40;;;3.33;;
61393;SDS011;48555;50.952;-0.120;2023-03-21T02:45:23;9.88;;;3.00;;
61393;SDS011;48555;50.952;-0.120;2023-03-21T02:48:00;7.97;;;2.85;;
61393;SDS011;48555;50.952;-0.120;2023-03-21T02:50:31;10.30;;;3.22;;
61393;SDS011;48555;50.952;-0.120;2023-03-21T02:53:01;12.70;;;3.30;;
61393;SDS011;48555;50.952;-0.120;2023-03-21T02:55:31;9.55;;;2.65;;
61393;SDS011;48555;50.952;-0.120;2023-03-21T02:57:58;10.25;;;2.88;;
61393;SDS011;48555;50.952;-0.120;2023-03-21T03:00:26;14.20;;;3.10;;
61393;SDS011;48555;50.952;-0.120;2023-03-21T03:02:54;11.68;;;3.03;;
61393;SDS011;48555;50.952;-0.120;2023-03-21T03:05:24;11.50;;;3.38;;
61393;SDS011;48555;50.952;-0.120;2023-03-21T03:15:56;16.67;;;2.78;;
61393;SDS011;48555;50.952;-0.120;2023-03-21T03:23:54;10.30;;;3.20;;
61393;SDS011;48555;50.952;-0.120;2023-03-21T03:29:00;10.95;;;2.42;;
61393;SDS011;48555;50.952;-0.120;2023-03-21T03:31:34;11.18;;;2.50;;
61393;SDS011;48555;50.952;-0.120;2023-03-21T03:34:05;8.98;;;2.25;;
61393;SDS011;48555;50.952;-0.120;2023-03-21T03:36:34;8.20;;;2.30;;
61393;SDS011;48555;50.952;-0.120;2023-03-21T03:39:05;10.27;;;2.50;;
61393;SDS011;48555;50.952;-0.120;2023-03-21T03:41:34;10.00;;;2.50;;
61393;SDS011;48555;50.952;-0.120;2023-03-21T03:44:08;8.32;;;2.30;;
61393;SDS011;48555;50.952;-0.120;2023-03-21T03:46:57;11.77;;;2.95;;
61393;SDS011;48555;50.952;-0.120;2023-03-21T03:49:20;14.82;;;2.70;;
61393;SDS011;48555;50.952;-0.120;2023-03-21T03:52:00;10.70;;;2.72;;
61393;SDS011;48555;50.952;-0.120;2023-03-21T03:54:42;9.40;;;2.58;;
61393;SDS011;48555;50.952;-0.120;2023-03-21T03:57:09;13.82;;;2.83;;
61393;SDS011;48555;50.952;-0.120;2023-03-21T03:59:38;9.25;;;2.53;;
61393;SDS011;48555;50.952;-0.120;2023-03-21T04:02:05;12.70;;;2.80;;
61393;SDS011;48555;50.952;-0.120;2023-03-21T04:04:31;13.98;;;3.03;;
61393;SDS011;48555;50.952;-0.120;2023-03-21T04:06:58;11.27;;;2.42;;
61393;SDS011;48555;50.952;-0.120;2023-03-21T04:09:24;10.35;;;2.67;;
61393;SDS011;48555;50.952;-0.120;2023-03-21T04:11:52;8.82;;;2.20;;
61393;SDS011;48555;50.952;-0.120;2023-03-21T04:14:18;11.80;;;2.85;;
61393;SDS011;48555;50.952;-0.120;2023-03-21T04:16:43;13.63;;;3.38;;
61393;SDS011;48555;50.952;-0.120;2023-03-21T04:19:08;12.90;;;2.42;;
61393;SDS011;48555;50.952;-0.120;2023-03-21T04:21:34;9.15;;;2.63;;
61393;SDS011;48555;50.952;-0.120;2023-03-21T04:23:59;15.88;;;3.30;;
61393;SDS011;48555;50.952;-0.120;2023-03-21T04:26:25;11.90;;;2.55;;
61393;SDS011;48555;50.952;-0.120;2023-03-21T04:28:56;15.23;;;2.78;;
61393;SDS011;48555;50.952;-0.120;2023-03-21T04:31:24;13.60;;;2.53;;
61393;SDS011;48555;50.952;-0.120;2023-03-21T04:33:52;7.45;;;2.33;;
61393;SDS011;48555;50.952;-0.120;2023-03-21T04:36:20;10.68;;;2.83;;
61393;SDS011;48555;50.952;-0.120;2023-03-21T04:38:55;13.50;;;2.55;;
61393;SDS011;48555;50.952;-0.120;2023-03-21T04:41:25;14.20;;;2.63;;
61393;SDS011;48555;50.952;-0.120;2023-03-21T04:43:54;10.77;;;2.70;;
61393;SDS011;48555;50.952;-0.120;2023-03-21T04:46:20;9.45;;;2.80;;
61393;SDS011;48555;50.952;-0.120;2023-03-21T04:48:46;10.38;;;2.40;;
61393;SDS011;48555;50.952;-0.120;2023-03-21T04:51:12;8.95;;;2.42;;
61393;SDS011;48555;50.952;-0.120;2023-03-21T04:53:38;11.18;;;3.00;;
61393;SDS011;48555;50.952;-0.120;2023-03-21T04:56:06;12.77;;;2.63;;
61393;SDS011;48555;50.952;-0.120;2023-03-21T04:58:32;9.68;;;2.28;;
61393;SDS011;48555;50.952;-0.120;2023-03-21T05:00:57;12.55;;;2.50;;
61393;SDS011;48555;50.952;-0.120;2023-03-21T05:03:23;9.50;;;2.60;;
61393;SDS011;48555;50.952;-0.120;2023-03-21T05:05:49;6.57;;;2.15;;
61393;SDS011;48555;50.952;-0.120;2023-03-21T05:08:14;10.02;;;2.28;;
61393;SDS011;48555;50.952;-0.120;2023-03-21T05:10:40;10.18;;;2.38;;
61393;SDS011;48555;50.952;-0.120;2023-03-21T05:13:06;7.90;;;2.17;;
61393;SDS011;48555;50.952;-0.120;2023-03-21T05:15:32;7.53;;;2.30;;
61393;SDS011;48555;50.952;-0.120;2023-03-21T05:17:57;8.90;;;2.45;;
61393;SDS011;48555;50.952;-0.120;2023-03-21T05:20:23;10.63;;;2.53;;
61393;SDS011;48555;50.952;-0.120;2023-03-21T05:22:49;9.05;;;2.70;;
61393;SDS011;48555;50.952;-0.120;2023-03-21T05:25:16;9.95;;;2.70;;
61393;SDS011;48555;50.952;-0.120;2023-03-21T05:27:57;7.47;;;2.97;;
61393;SDS011;48555;50.952;-0.120;2023-03-21T05:30:26;8.15;;;2.70;;
61393;SDS011;48555;50.952;-0.120;2023-03-21T05:32:52;9.02;;;2.65;;
61393;SDS011;48555;50.952;-0.120;2023-03-21T05:35:18;10.02;;;2.78;;
61393;SDS011;48555;50.952;-0.120;2023-03-21T05:37:43;11.20;;;2.72;;
61393;SDS011;48555;50.952;-0.120;2023-03-21T05:40:09;12.00;;;3.08;;
61393;SDS011;48555;50.952;-0.120;2023-03-21T05:42:34;8.13;;;2.67;;
61393;SDS011;48555;50.952;-0.120;2023-03-21T05:45:00;9.82;;;2.88;;
61393;SDS011;48555;50.952;-0.120;2023-03-21T05:47:25;9.30;;;2.78;;
61393;SDS011;48555;50.952;-0.120;2023-03-21T05:49:51;9.23;;;2.35;;
61393;SDS011;48555;50.952;-0.120;2023-03-21T05:52:16;8.30;;;2.60;;
61393;SDS011;48555;50.952;-0.120;2023-03-21T05:54:42;8.57;;;2.55;;
61393;SDS011;48555;50.952;-0.120;2023-03-21T05:57:07;10.77;;;2.58;;
61393;SDS011;48555;50.952;-0.120;2023-03-21T05:59:33;7.45;;;2.70;;
61393;SDS011;48555;50.952;-0.120;2023-03-21T06:01:59;9.60;;;2.35;;
61393;SDS011;48555;50.952;-0.120;2023-03-21T06:04:24;13.40;;;2.80;;
61393;SDS011;48555;50.952;-0.120;2023-03-21T06:06:50;9.68;;;2.60;;
61393;SDS011;48555;50.952;-0.120;2023-03-21T06:09:17;9.65;;;2.60;;
61393;SDS011;48555;50.952;-0.120;2023-03-21T06:11:45;10.45;;;2.80;;
61393;SDS011;48555;50.952;-0.120;2023-03-21T06:14:12;10.60;;;3.20;;
61393;SDS011;48555;50.952;-0.120;2023-03-21T06:16:37;9.75;;;2.92;;
61393;SDS011;48555;50.952;-0.120;2023-03-21T06:19:03;7.63;;;2.63;;
61393;SDS011;48555;50.952;-0.120;2023-03-21T06:21:28;9.27;;;2.40;;
61393;SDS011;48555;50.952;-0.120;2023-03-21T06:23:53;12.32;;;2.63;;
61393;SDS011;48555;50.952;-0.120;2023-03-21T06:26:19;11.57;;;2.80;;
61393;SDS011;48555;50.952;-0.120;2023-03-21T06:28:47;6.95;;;2.08;;
61393;SDS011;48555;50.952;-0.120;2023-03-21T06:31:13;8.30;;;2.88;;
61393;SDS011;48555;50.952;-0.120;2023-03-21T06:33:38;8.55;;;2.05;;
61393;SDS011;48555;50.952;-0.120;2023-03-21T06:36:04;7.05;;;2.20;;
61393;SDS011;48555;50.952;-0.120;2023-03-21T06:38:29;10.48;;;2.42;;
61393;SDS011;48555;50.952;-0.120;2023-03-21T06:40:55;10.88;;;2.50;;
61393;SDS011;48555;50.952;-0.120;2023-03-21T06:43:21;8.65;;;2.15;;
61393;SDS011;48555;50.952;-0.120;2023-03-21T06:45:47;8.00;;;2.25;;
61393;SDS011;48555;50.952;-0.120;2023-03-21T06:48:12;10.00;;;3.28;;
61393;SDS011;48555;50.952;-0.120;2023-03-21T06:50:38;7.97;;;2.22;;
61393;SDS011;48555;50.952;-0.120;2023-03-21T06:53:03;9.43;;;2.58;;
61393;SDS011;48555;50.952;-0.120;2023-03-21T06:55:28;13.20;;;2.40;;
61393;SDS011;48555;50.952;-0.120;2023-03-21T06:57:54;10.85;;;2.70;;
61393;SDS011;48555;50.952;-0.120;2023-03-21T07:00:21;9.55;;;2.75;;
61393;SDS011;48555;50.952;-0.120;2023-03-21T07:02:47;8.98;;;2.22;;
61393;SDS011;48555;50.952;-0.120;2023-03-21T07:05:14;10.57;;;2.20;;
61393;SDS011;48555;50.952;-0.120;2023-03-21T07:07:40;8.85;;;2.60;;
61393;SDS011;48555;50.952;-0.120;2023-03-21T07:10:06;10.98;;;2.60;;
61393;SDS011;48555;50.952;-0.120;2023-03-21T07:12:34;7.57;;;2.00;;
61393;SDS011;48555;50.952;-0.120;2023-03-21T07:15:00;7.25;;;2.20;;
61393;SDS011;48555;50.952;-0.120;2023-03-21T07:17:28;10.32;;;2.50;;
61393;SDS011;48555;50.952;-0.120;2023-03-21T07:19:53;12.65;;;2.55;;
61393;SDS011;48555;50.952;-0.120;2023-03-21T07:22:19;8.38;;;2.47;;
61393;SDS011;48555;50.952;-0.120;2023-03-21T07:24:44;11.00;;;2.83;;
61393;SDS011;48555;50.952;-0.120;2023-03-21T07:27:13;11.70;;;2.38;;
61393;SDS011;48555;50.952;-0.120;2023-03-21T07:29:39;10.48;;;2.63;;
61393;SDS011;48555;50.952;-0.120;2023-03-21T07:32:05;10.63;;;2.65;;
61393;SDS011;48555;50.952;-0.120;2023-03-21T07:34:31;8.10;;;2.35;;
61393;SDS011;48555;50.952;-0.120;2023-03-21T07:36:57;11.45;;;2.80;;
61393;SDS011;48555;50.952;-0.120;2023-03-21T07:39:24;10.63;;;2.50;;
61393;SDS011;48555;50.952;-0.120;2023-03-21T07:41:50;11.05;;;2.80;;
61393;SDS011;48555;50.952;-0.120;2023-03-21T07:44:15;11.05;;;2.42;;
61393;SDS011;48555;50.952;-0.120;2023-03-21T07:46:41;8.52;;;2.50;;
61393;SDS011;48555;50.952;-0.120;2023-03-21T07:49:06;6.43;;;2.35;;
61393;SDS011;48555;50.952;-0.120;2023-03-21T07:51:32;11.43;;;2.80;;
61393;SDS011;48555;50.952;-0.120;2023-03-21T07:53:59;7.45;;;2.15;;
61393;SDS011;48555;50.952;-0.120;2023-03-21T07:56:26;7.18;;;2.15;;
61393;SDS011;48555;50.952;-0.120;2023-03-21T07:58:51;6.70;;;2.00;;
61393;SDS011;48555;50.952;-0.120;2023-03-21T08:01:17;4.22;;;1.80;;
61393;SDS011;48555;50.952;-0.120;2023-03-21T08:03:42;5.57;;;1.98;;
61393;SDS011;48555;50.952;-0.120;2023-03-21T08:06:08;4.78;;;1.92;;
61393;SDS011;48555;50.952;-0.120;2023-03-21T08:08:34;9.75;;;2.08;;
61393;SDS011;48555;50.952;-0.120;2023-03-21T08:10:59;8.07;;;2.13;;
61393;SDS011;48555;50.952;-0.120;2023-03-21T08:13:25;9.77;;;2.50;;
61393;SDS011;48555;50.952;-0.120;2023-03-21T08:15:50;6.80;;;2.38;;
61393;SDS011;48555;50.952;-0.120;2023-03-21T08:18:15;10.95;;;2.50;;
61393;SDS011;48555;50.952;-0.120;2023-03-21T08:20:41;9.88;;;2.60;;
61393;SDS011;48555;50.952;-0.120;2023-03-21T08:23:06;10.43;;;2.55;;
61393;SDS011;48555;50.952;-0.120;2023-03-21T08:25:32;6.97;;;2.25;;
61393;SDS011;48555;50.952;-0.120;2023-03-21T08:27:57;7.15;;;2.25;;
61393;SDS011;48555;50.952;-0.120;2023-03-21T08:30:23;7.55;;;2.50;;
61393;SDS011;48555;50.952;-0.120;2023-03-21T08:32:54;5.80;;;2.10;;
61393;SDS011;48555;50.952;-0.120;2023-03-21T08:35:21;7.97;;;2.70;;
61393;SDS011;48555;50.952;-0.120;2023-03-21T08:37:47;11.27;;;3.10;;
61393;SDS011;48555;50.952;-0.120;2023-03-21T08:40:14;10.50;;;2.30;;
61393;SDS011;48555;50.952;-0.120;2023-03-21T08:42:41;7.43;;;2.47;;
61393;SDS011;48555;50.952;-0.120;2023-03-21T08:45:07;9.77;;;2.20;;
61393;SDS011;48555;50.952;-0.120;2023-03-21T08:47:34;10.00;;;2.42;;
61393;SDS011;48555;50.952;-0.120;2023-03-21T08:49:59;10.75;;;2.05;;
61393;SDS011;48555;50.952;-0.120;2023-03-21T08:52:25;10.93;;;2.50;;
61393;SDS011;48555;50.952;-0.120;2023-03-21T08:54:51;6.93;;;2.00;;
61393;SDS011;48555;50.952;-0.120;2023-03-21T08:57:17;10.15;;;2.65;;
61393;SDS011;48555;50.952;-0.120;2023-03-21T08:59:42;10.75;;;2.47;;
61393;SDS011;48555;50.952;-0.120;2023-03-21T09:02:09;6.97;;;2.13;;
61393;SDS011;48555;50.952;-0.120;2023-03-21T09:04:37;8.40;;;1.98;;
61393;SDS011;48555;50.952;-0.120;2023-03-21T09:07:02;8.65;;;2.55;;
61393;SDS011;48555;50.952;-0.120;2023-03-21T09:09:29;7.85;;;2.13;;
61393;SDS011;48555;50.952;-0.120;2023-03-21T09:11:55;11.25;;;2.08;;
61393;SDS011;48555;50.952;-0.120;2023-03-21T09:14:20;7.25;;;2.00;;
61393;SDS011;48555;50.952;-0.120;2023-03-21T09:16:45;12.35;;;2.08;;
61393;SDS011;48555;50.952;-0.120;2023-03-21T09:19:11;5.45;;;1.73;;
61393;SDS011;48555;50.952;-0.120;2023-03-21T09:21:36;10.23;;;1.90;;
61393;SDS011;48555;50.952;-0.120;2023-03-21T09:24:02;8.43;;;1.80;;
61393;SDS011;48555;50.952;-0.120;2023-03-21T09:26:29;7.97;;;2.22;;
61393;SDS011;48555;50.952;-0.120;2023-03-21T09:28:55;9.15;;;2.30;;
61393;SDS011;48555;50.952;-0.120;2023-03-21T09:31:20;9.38;;;1.98;;
61393;SDS011;48555;50.952;-0.120;2023-03-21T09:33:50;9.77;;;1.92;;
61393;SDS011;48555;50.952;-0.120;2023-03-21T09:36:17;5.97;;;1.80;;
61393;SDS011;48555;50.952;-0.120;2023-03-21T09:38:45;10.13;;;2.28;;
61393;SDS011;48555;50.952;-0.120;2023-03-21T09:46:59;7.30;;;1.92;;
61393;SDS011;48555;50.952;-0.120;2023-03-21T09:49:36;8.07;;;1.95;;
61393;SDS011;48555;50.952;-0.120;2023-03-21T09:52:41;9.48;;;2.20;;
61393;SDS011;48555;50.952;-0.120;2023-03-21T09:55:12;8.15;;;2.35;;
61393;SDS011;48555;50.952;-0.120;2023-03-21T09:57:43;11.98;;;2.25;;
61393;SDS011;48555;50.952;-0.120;2023-03-21T10:00:14;7.63;;;2.00;;
61393;SDS011;48555;50.952;-0.120;2023-03-21T10:02:49;8.52;;;2.05;;
61393;SDS011;48555;50.952;-0.120;2023-03-21T10:07:52;13.20;;;2.33;;
61393;SDS011;48555;50.952;-0.120;2023-03-21T10:10:26;9.88;;;2.63;;
61393;SDS011;48555;50.952;-0.120;2023-03-21T10:12:53;10.57;;;2.63;;
61393;SDS011;48555;50.952;-0.120;2023-03-21T10:15:21;12.20;;;2.72;;
61393;SDS011;48555;50.952;-0.120;2023-03-21T10:17:54;8.45;;;2.28;;
61393;SDS011;48555;50.952;-0.120;2023-03-21T10:20:26;12.93;;;2.58;;
61393;SDS011;48555;50.952;-0.120;2023-03-21T10:22:55;11.07;;;3.00;;
61393;SDS011;48555;50.952;-0.120;2023-03-21T10:25:33;16.08;;;3.03;;
61393;SDS011;48555;50.952;-0.120;2023-03-21T10:28:01;13.30;;;2.47;;
61393;SDS011;48555;50.952;-0.120;2023-03-21T10:33:05;11.27;;;2.35;;
61393;SDS011;48555;50.952;-0.120;2023-03-21T10:35:33;9.82;;;2.38;;
61393;SDS011;48555;50.952;-0.120;2023-03-21T10:38:02;9.50;;;2.40;;
61393;SDS011;48555;50.952;-0.120;2023-03-21T10:40:29;10.32;;;2.53;;
61393;SDS011;48555;50.952;-0.120;2023-03-21T10:42:55;10.00;;;2.13;;
61393;SDS011;48555;50.952;-0.120;2023-03-21T10:45:21;9.55;;;2.28;;
61393;SDS011;48555;50.952;-0.120;2023-03-21T10:47:48;8.82;;;2.10;;
61393;SDS011;48555;50.952;-0.120;2023-03-21T10:50:16;10.23;;;2.40;;
61393;SDS011;48555;50.952;-0.120;2023-03-21T10:52:52;13.57;;;2.15;;
61393;SDS011;48555;50.952;-0.120;2023-03-21T10:55:32;9.50;;;1.98;;
61393;SDS011;48555;50.952;-0.120;2023-03-21T10:58:00;11.80;;;2.50;;
61393;SDS011;48555;50.952;-0.120;2023-03-21T11:00:36;16.05;;;3.20;;
61393;SDS011;48555;50.952;-0.120;2023-03-21T11:03:05;11.68;;;1.90;;
61393;SDS011;48555;50.952;-0.120;2023-03-21T11:05:36;15.57;;;2.80;;
61393;SDS011;48555;50.952;-0.120;2023-03-21T11:10:34;18.83;;;2.65;;
61393;SDS011;48555;50.952;-0.120;2023-03-21T11:13:16;14.50;;;2.50;;
61393;SDS011;48555;50.952;-0.120;2023-03-21T11:18:23;10.40;;;1.85;;
61393;SDS011;48555;50.952;-0.120;2023-03-21T11:20:52;11.18;;;2.17;;
61393;SDS011;48555;50.952;-0.120;2023-03-21T11:23:26;14.18;;;2.75;;
61393;SDS011;48555;50.952;-0.120;2023-03-21T11:25:54;15.10;;;2.92;;
61393;SDS011;48555;50.952;-0.120;2023-03-21T11:28:23;12.15;;;2.35;;
61393;SDS011;48555;50.952;-0.120;2023-03-21T11:30:54;12.55;;;2.92;;
61393;SDS011;48555;50.952;-0.120;2023-03-21T11:33:22;12.52;;;2.20;;
61393;SDS011;48555;50.952;-0.120;2023-03-21T11:36:23;13.32;;;2.30;;
61393;SDS011;48555;50.952;-0.120;2023-03-21T11:38:57;11.70;;;2.55;;
61393;SDS011;48555;50.952;-0.120;2023-03-21T11:41:30;15.23;;;3.60;;
61393;SDS011;48555;50.952;-0.120;2023-03-21T11:43:57;18.23;;;2.95;;
61393;SDS011;48555;50.952;-0.120;2023-03-21T11:46:24;13.88;;;3.72;;
61393;SDS011;48555;50.952;-0.120;2023-03-21T11:48:51;11.90;;;2.90;;
61393;SDS011;48555;50.952;-0.120;2023-03-21T11:51:28;14.75;;;2.92;;
61393;SDS011;48555;50.952;-0.120;2023-03-21T11:56:43;9.63;;;2.33;;
61393;SDS011;48555;50.952;-0.120;2023-03-21T11:59:17;18.48;;;2.60;;
61393;SDS011;48555;50.952;-0.120;2023-03-21T12:04:49;11.40;;;2.53;;
61393;SDS011;48555;50.952;-0.120;2023-03-21T12:07:26;13.90;;;2.70;;
61393;SDS011;48555;50.952;-0.120;2023-03-21T12:13:09;11.88;;;2.10;;
61393;SDS011;48555;50.952;-0.120;2023-03-21T12:15:53;14.27;;;3.15;;
61393;SDS011;48555;50.952;-0.120;2023-03-21T12:24:23;20.27;;;3.33;;
61393;SDS011;48555;50.952;-0.120;2023-03-21T12:35:38;12.55;;;2.40;;
61393;SDS011;48555;50.952;-0.120;2023-03-21T12:38:17;14.43;;;2.78;;
61393;SDS011;48555;50.952;-0.120;2023-03-21T12:43:46;15.88;;;2.70;;
61393;SDS011;48555;50.952;-0.120;2023-03-21T12:46:37;13.75;;;2.92;;
61393;SDS011;48555;50.952;-0.120;2023-03-21T12:51:56;18.30;;;2.95;;
61393;SDS011;48555;50.952;-0.120;2023-03-21T12:54:34;14.15;;;2.63;;
61393;SDS011;48555;50.952;-0.120;2023-03-21T13:02:48;15.82;;;2.95;;
61393;SDS011;48555;50.952;-0.120;2023-03-21T13:07:59;20.33;;;3.47;;
61393;SDS011;48555;50.952;-0.120;2023-03-21T13:10:30;14.82;;;3.25;;
61393;SDS011;48555;50.952;-0.120;2023-03-21T13:21:00;21.20;;;3.53;;
61393;SDS011;48555;50.952;-0.120;2023-03-21T13:23:34;18.27;;;3.70;;
61393;SDS011;48555;50.952;-0.120;2023-03-21T13:26:02;23.23;;;3.42;;
61393;SDS011;48555;50.952;-0.120;2023-03-21T13:28:33;15.05;;;3.13;;
61393;SDS011;48555;50.952;-0.120;2023-03-21T13:31:13;17.75;;;3.97;;
61393;SDS011;48555;50.952;-0.120;2023-03-21T13:33:44;21.00;;;3.83;;
61393;SDS011;48555;50.952;-0.120;2023-03-21T13:36:11;16.63;;;2.75;;
61393;SDS011;48555;50.952;-0.120;2023-03-21T13:38:39;15.90;;;3.47;;
61393;SDS011;48555;50.952;-0.120;2023-03-21T13:41:10;19.75;;;4.03;;
61393;SDS011;48555;50.952;-0.120;2023-03-21T13:43:55;19.92;;;3.33;;
61393;SDS011;48555;50.952;-0.120;2023-03-21T13:46:42;22.42;;;3.30;;
61393;SDS011;48555;50.952;-0.120;2023-03-21T13:54:00;22.35;;;3.95;;
61393;SDS011;48555;50.952;-0.120;2023-03-21T13:56:28;22.00;;;3.90;;
61393;SDS011;48555;50.952;-0.120;2023-03-21T13:59:34;18.80;;;3.42;;
61393;SDS011;48555;50.952;-0.120;2023-03-21T14:02:42;17.63;;;3.17;;
61393;SDS011;48555;50.952;-0.120;2023-03-21T14:05:02;20.90;;;4.63;;
61393;SDS011;48555;50.952;-0.120;2023-03-21T14:07:34;19.10;;;3.30;;
61393;SDS011;48555;50.952;-0.120;2023-03-21T14:10:05;18.67;;;3.33;;
61393;SDS011;48555;50.952;-0.120;2023-03-21T14:12:41;15.30;;;3.30;;
61393;SDS011;48555;50.952;-0.120;2023-03-21T14:17:54;12.93;;;2.97;;
61393;SDS011;48555;50.952;-0.120;2023-03-21T14:22:52;16.98;;;3.47;;
61393;SDS011;48555;50.952;-0.120;2023-03-21T14:25:18;13.57;;;2.92;;
61393;SDS011;48555;50.952;-0.120;2023-03-21T14:27:47;22.13;;;3.22;;
61393;SDS011;48555;50.952;-0.120;2023-03-21T14:32:55;14.75;;;2.70;;
61393;SDS011;48555;50.952;-0.120;2023-03-21T14:35:24;16.60;;;2.70;;
61393;SDS011;48555;50.952;-0.120;2023-03-21T14:37:52;12.95;;;3.05;;
61393;SDS011;48555;50.952;-0.120;2023-03-21T14:40:25;17.13;;;3.63;;
61393;SDS011;48555;50.952;-0.120;2023-03-21T14:42:51;17.77;;;3.25;;
61393;SDS011;48555;50.952;-0.120;2023-03-21T14:45:19;18.35;;;4.13;;
61393;SDS011;48555;50.952;-0.120;2023-03-21T14:47:57;18.55;;;2.95;;
61393;SDS011;48555;50.952;-0.120;2023-03-21T14:50:35;15.93;;;3.38;;
61393;SDS011;48555;50.952;-0.120;2023-03-21T14:53:14;16.98;;;3.15;;
61393;SDS011;48555;50.952;-0.120;2023-03-21T14:55:45;19.15;;;3.75;;
61393;SDS011;48555;50.952;-0.120;2023-03-21T14:58:14;20.65;;;3.00;;
61393;SDS011;48555;50.952;-0.120;2023-03-21T15:00:43;23.30;;;3.33;;
61393;SDS011;48555;50.952;-0.120;2023-03-21T15:03:13;13.80;;;2.72;;
61393;SDS011;48555;50.952;-0.120;2023-03-21T15:05:41;15.60;;;2.85;;
61393;SDS011;48555;50.952;-0.120;2023-03-21T15:08:08;18.98;;;3.20;;
61393;SDS011;48555;50.952;-0.120;2023-03-21T15:10:36;15.25;;;3.00;;
61393;SDS011;48555;50.952;-0.120;2023-03-21T15:13:13;15.25;;;2.95;;
61393;SDS011;48555;50.952;-0.120;2023-03-21T15:15:43;17.10;;;3.13;;
61393;SDS011;48555;50.952;-0.120;2023-03-21T15:18:10;18.48;;;3.70;;
61393;SDS011;48555;50.952;-0.120;2023-03-21T15:20:40;24.50;;;3.87;;
61393;SDS011;48555;50.952;-0.120;2023-03-21T15:23:07;20.10;;;3.65;;
61393;SDS011;48555;50.952;-0.120;2023-03-21T15:25:38;16.65;;;3.08;;
61393;SDS011;48555;50.952;-0.120;2023-03-21T15:28:04;17.17;;;3.50;;
61393;SDS011;48555;50.952;-0.120;2023-03-21T15:30:30;21.10;;;3.72;;
61393;SDS011;48555;50.952;-0.120;2023-03-21T15:32:58;19.98;;;3.50;;
61393;SDS011;48555;50.952;-0.120;2023-03-21T15:38:02;15.23;;;3.13;;
61393;SDS011;48555;50.952;-0.120;2023-03-21T15:40:29;18.92;;;2.90;;
61393;SDS011;48555;50.952;-0.120;2023-03-21T15:43:03;20.38;;;3.55;;
61393;SDS011;48555;50.952;-0.120;2023-03-21T15:45:59;14.95;;;3.20;;
61393;SDS011;48555;50.952;-0.120;2023-03-21T15:48:24;20.48;;;3.53;;
61393;SDS011;48555;50.952;-0.120;2023-03-21T15:51:02;21.95;;;3.97;;
61393;SDS011;48555;50.952;-0.120;2023-03-21T15:53:38;18.00;;;3.17;;
61393;SDS011;48555;50.952;-0.120;2023-03-21T15:56:08;18.20;;;3.08;;
61393;SDS011;48555;50.952;-0.120;2023-03-21T15:58:43;19.30;;;3.85;;
61393;SDS011;48555;50.952;-0.120;2023-03-21T16:01:13;22.88;;;4.30;;
61393;SDS011;48555;50.952;-0.120;2023-03-21T16:03:43;18.02;;;3.40;;
61393;SDS011;48555;50.952;-0.120;2023-03-21T16:08:45;22.80;;;3.47;;
61393;SDS011;48555;50.952;-0.120;2023-03-21T16:13:48;17.35;;;3.38;;
61393;SDS011;48555;50.952;-0.120;2023-03-21T16:16:15;17.42;;;3.15;;
61393;SDS011;48555;50.952;-0.120;2023-03-21T16:18:43;18.60;;;3.15;;
61393;SDS011;48555;50.952;-0.120;2023-03-21T16:21:10;18.50;;;2.88;;
61393;SDS011;48555;50.952;-0.120;2023-03-21T16:23:36;14.68;;;2.60;;
61393;SDS011;48555;50.952;-0.120;2023-03-21T16:26:02;19.92;;;3.75;;
61393;SDS011;48555;50.952;-0.120;2023-03-21T16:28:29;17.27;;;3.28;;
61393;SDS011;48555;50.952;-0.120;2023-03-21T16:30:54;22.02;;;3.65;;
61393;SDS011;48555;50.952;-0.120;2023-03-21T16:33:20;17.27;;;3.40;;
61393;SDS011;48555;50.952;-0.120;2023-03-21T16:35:45;23.40;;;3.85;;
61393;SDS011;48555;50.952;-0.120;2023-03-21T16:38:11;15.40;;;3.50;;